Quick Links (Output Below):   Max & Min Temps   /   Climate Reports   /   Zone Forecasts
River Forecasts   /   Forestry Forecasts   /   Aviation Forecasts   /   Radars   /   Features

Terminal Aerodrome Forecast (Fayetteville)

Pick a Site:
Arkadelphia | El Dorado | Fayetteville | Fort Smith | Harrison | Highfill | Hot Springs | Jonesboro
Little Rock | Monticello | Mountain Home | Pine Bluff | Texarkana
 Forecast 

KFYV 212320Z 2200/2224 17012KT P6SM SKC
     FM220100 17005KT P6SM FEW250
     FM221500 20012KT P6SM FEW250=


 Latest METARs (Observations) 
How to Decode METARs
01Z KFYV 220053Z 18007KT 10SM CLR 28/21 A3002 RMK AO2 SLP150
         T02780211
         
00Z KFYV 212353Z 18012KT 10SM CLR 29/22 A3001 RMK AO2 SLP147 T02940217
         10322 20294 55001
         
***** Today's Observations (Above) *****


23Z KFYV 212253Z 17012KT 10SM CLR 31/21 A3001 RMK AO2 SLP145
         T03110206
         
22Z KFYV 212153Z 18014G19KT 10SM CLR 32/21 A3001 RMK AO2 SLP144
         T03220211
         
21Z KFYV 212053Z 18017KT 10SM CLR 32/21 A3002 RMK AO2 SLP147 T03220211
         58016
         
20Z KFYV 211953Z 18011G18KT 10SM CLR 32/21 A3004 RMK AO2 SLP154
         T03220211
         
19Z KFYV 211853Z 20011G18KT 10SM CLR 32/21 A3006 RMK AO2 SLP161
         T03170211
         
18Z KFYV 211753Z 17013KT 10SM CLR 31/22 A3007 RMK AO2 SLP164 T03110217
         10311 20233 58000
         
17Z KFYV 211653Z 21013KT 10SM CLR 30/22 A3008 RMK AO2 SLP167
         T03000217
         
16Z KFYV 211553Z 20011G17KT 10SM CLR 29/21 A3008 RMK AO2 SLP168
         T02940211
         
***** Yesterday's Observations (Above) *****


Back to Main Page
http://www.srh.noaa.gov/lzk/qfcst.php

USA.gov is the U.S. government's official web portal to all federal, state and local government web resources and services.